Terminal Aerodrome Forecast
Issued by NWS

Home | Current Version | Previous Version | Text Only | Print | Product List | Glossary On
Versions: 1 2 3 4 5 6 7 8 9 10 11 12 13 14 15 16 17 18 19 20 21 22
000
FTUS45 KRIW 192300
TAFCPR
TAF
KCPR 192329Z 2000/2024 08018G28KT 2SM -SNRA BR OVC006
     FM200300 03007KT P6SM -RASN OVC016
      TEMPO 2003/2004 3SM -RASN BR OVC008
     FM201600 09007KT P6SM VCSH BKN028=

USA.gov is the U.S. government's official web portal to all federal, state and local government web resources and services.